N G Explorer — C6WR2 — position and weather

sailwx.info

Track history (hours):
 
Tides and Currents Weather Stations Pressure Air Temp Water Temp Dewpoint Dewpoint Depression Visibility Wind Speed Wind Dir Waves Ship Positions

N G Explorer

Last reported at 2017-May-26 15:00 UTC. Time now 2017-Jun-25 08:37 UTC.
Position N 76°42' E 018°00'.
Warning: this ship's position is 29 days out of date.

Length 112 m; draft 4.9 m.

Type: Passenger vessel. MMSI: 309336000.

Wind from 290 at 14 knots

Barometer 1018.0 mb
Air temperature -0.5 ° C
Dewpoint -1.8 ° C
Water temperature -0.8 ° C

Date/timePositionNaut miles runAvg speedWind from/ knotsBaromVisibWave heightAir tempDewpointWater temp
2017-May-26 15:00N 76°42' E 018°00'363 8.3 290 / 141018.0 -0.5-1.8-0.8
2017-May-24 19:17N 70°41' E 020°12'415.3
2017-May-24 19:00N 70°37' E 020°13'815.3
2017-May-24 18:29N 70°29' E 020°16'715.0
2017-May-24 18:00N 70°22' E 020°19'714.8
2017-May-24 17:30N 70°15' E 020°20'714.8
2017-May-24 17:00N 70°07' E 020°14'714.8
2017-May-24 16:30N 70°01' E 020°03'713.7
2017-May-24 16:00N 69°55' E 019°52'714.7
2017-May-24 15:30N 69°50' E 019°38'815.2
2017-May-24 15:00N 69°47' E 019°17'713.5
2017-May-24 14:30N 69°43' E 019°03'4 4.0
2017-May-24 13:30N 69°39' E 018°58'0 0.0
2017-May-24 13:00N 69°39' E 018°58'0 0.0
2017-May-24 12:30N 69°39' E 018°58'0 0.0
2017-May-24 11:59N 69°39' E 018°58'0 0.0
2017-May-24 11:30N 69°39' E 018°58'0 0.0
2017-May-24 11:00N 69°39' E 018°58'0 0.0
2017-May-24 10:30N 69°39' E 018°58'0 0.0
2017-May-24 09:57N 69°39' E 018°58'0 0.0
2017-May-24 09:29N 69°39' E 018°58'0 0.0
2017-May-24 08:57N 69°39' E 018°58'0 0.0
2017-May-24 08:29N 69°39' E 018°58'0 0.0
2017-May-24 07:59N 69°39' E 018°58'0 0.0
2017-May-24 07:29N 69°39' E 018°58'0 0.0
2017-May-24 06:59N 69°39' E 018°58'0 0.0
2017-May-24 06:29N 69°39' E 018°58'0 0.0
2017-May-24 05:59N 69°39' E 018°58'0 0.0
2017-May-24 05:29N 69°39' E 018°58'0 0.0
2017-May-24 04:59N 69°39' E 018°58'4 7.6
2017-May-24 04:30N 69°36' E 018°52'510.8
2017-May-24 04:00N 69°33' E 018°39'611.5
2017-May-24 03:30N 69°31' E 018°24'611.6
2017-May-24 03:00N 69°29' E 018°09'611.8
2017-May-24 02:30N 69°23' E 018°05'511.0
2017-May-24 02:00N 69°18' E 017°58'510.7
2017-May-24 01:30N 69°13' E 017°59'5 9.2
2017-May-24 01:00N 69°09' E 017°51'611.5
2017-May-24 00:30N 69°07' E 017°36'611.5
2017-May-24 00:00N 69°04' E 017°22'612.0
2017-May-23 23:30N 68°59' E 017°13'611.6
2017-May-23 23:00N 68°55' E 017°02'713.2
2017-May-23 22:30N 68°49' E 016°52'714.5
2017-May-23 22:00N 68°43' E 016°43'714.9
2017-May-23 21:30N 68°36' E 016°33'612.8
2017-May-23 21:00N 68°33' E 016°17'713.6
2017-May-23 20:30N 68°28' E 016°06'612.7
2017-May-23 20:00N 68°22' E 015°59'714.7
2017-May-23 19:30N 68°17' E 015°45'714.4
2017-May-23 19:00N 68°13' E 015°29'714.8
2017-May-23 18:30N 68°11' E 015°10'714.9
2017-May-23 18:00N 68°09' E 014°51'714.9
2017-May-23 17:30N 68°06' E 014°32'815.2
2017-May-23 17:00N 68°04' E 014°13'815.0
2017-May-23 16:30N 68°02' E 013°53'714.7
2017-May-23 16:00N 67°59' E 013°35'713.8
2017-May-23 15:30N 67°57' E 013°18'4 6.9
2017-May-23 14:52N 67°56' E 013°06'0 0.0
2017-May-23 14:25N 67°56' E 013°06'0 0.0
2017-May-23 13:22N 67°56' E 013°06'0 0.0
2017-May-23 12:58N 67°56' E 013°06'0 0.0
2017-May-23 12:28N 67°56' E 013°06'0 0.0
2017-May-23 12:00N 67°56' E 013°06'4 7.7
2017-May-23 11:29N 67°52' E 013°05'815.8
2017-May-23 11:00N 67°45' E 012°57'815.9
2017-May-23 10:30N 67°38' E 012°46'3 6.7
2017-May-23 09:59N 67°39' E 012°37'0 0.0
2017-May-23 09:29N 67°39' E 012°37'0 0.0
2017-May-23 08:59N 67°39' E 012°37'0 0.0
2017-May-23 08:29N 67°39' E 012°37'0 0.0
2017-May-23 07:59N 67°39' E 012°37'0 0.0
2017-May-23 07:29N 67°39' E 012°37'0 0.0
2017-May-23 06:59N 67°39' E 012°37'0 0.1
2017-May-23 06:29N 67°39' E 012°37'0 0.0
2017-May-23 05:59N 67°39' E 012°37'0 0.0
2017-May-23 05:29N 67°39' E 012°37'0 0.6
2017-May-23 05:00N 67°38' E 012°37'3 6.7
2017-May-23 04:30N 67°38' E 012°45'4 7.7
2017-May-23 04:00N 67°39' E 012°55'4 7.7
2017-May-23 03:30N 67°40' E 013°05'4 7.6
2017-May-23 03:00N 67°41' E 013°14'4 7.7
2017-May-23 02:29N 67°43' E 013°23'4 7.8
2017-May-23 02:00N 67°46' E 013°31'4 7.8
2017-May-23 01:30N 67°48' E 013°39'4 7.8
2017-May-23 01:00N 67°50' E 013°47'4 7.4
2017-May-23 00:30N 67°53' E 013°55'4 8.8
2017-May-23 00:00N 67°55' E 014°04'4 9.1
2017-May-22 23:30N 67°58' E 014°13'5 9.1
2017-May-22 23:00N 68°01' E 014°23'4 8.4
2017-May-22 22:30N 68°03' E 014°32'4 7.9
2017-May-22 22:00N 68°06' E 014°39'4 8.1
2017-May-22 21:31N 68°09' E 014°46'4 8.3
2017-May-22 21:01N 68°13' E 014°53'4 8.0
2017-May-22 20:29N 68°16' E 014°58'4 8.5
2017-May-22 20:00N 68°21' E 014°59'2 3.0
2017-May-22 19:30N 68°22' E 014°57'0 0.8
2017-May-22 19:00N 68°22' E 014°58'3 5.4
2017-May-22 18:30N 68°19' E 014°58'510.7
2017-May-22 18:00N 68°14' E 014°56'5 9.4
2017-May-22 17:29N 68°12' E 015°09'510.5
2017-May-22 17:01N 68°13' E 015°22'510.6
2017-May-22 16:31N 68°13' E 015°36'611.6
2017-May-22 16:00N 68°15' E 015°51'5 9.9
2017-May-22 15:30N 68°16' E 016°04'1 1.9
2017-May-22 14:59N 68°15' E 016°04'0 0.0
2017-May-22 14:26N 68°15' E 016°04'0 0.0
2017-May-22 13:29N 68°15' E 016°04'0 0.5
2017-May-22 13:00N 68°15' E 016°05'611.8
2017-May-22 12:30N 68°09' E 016°11'613.0
2017-May-22 12:00N 68°03' E 016°08'9 1.2
2017-May-22 04:15N 67°54' E 016°16'2 8.5
2017-May-22 04:00N 67°56' E 016°14'611.4
2017-May-22 03:28N 68°02' E 016°10'511.0
2017-May-22 03:00N 68°07' E 016°10'611.4
2017-May-22 02:30N 68°13' E 016°09'510.8
2017-May-22 02:00N 68°17' E 016°00'611.6
2017-May-22 01:31N 68°15' E 015°46'611.8
2017-May-22 01:00N 68°12' E 015°32'611.9
2017-May-22 00:30N 68°09' E 015°18'611.9
2017-May-22 00:00N 68°05' E 015°05'612.4
2017-May-21 23:30N 68°01' E 014°52'612.3
2017-May-21 23:00N 67°57' E 014°39'612.3
2017-May-21 22:30N 67°53' E 014°27'612.5
2017-May-21 22:00N 67°48' E 014°17'713.4
2017-May-21 21:30N 67°42' E 014°14'713.0
2017-May-21 21:00N 67°35' E 014°11'611.7
2017-May-21 20:30N 67°29' E 014°11'611.4
2017-May-21 20:00N 67°24' E 014°05'611.7
2017-May-21 19:30N 67°20' E 013°56'611.8
2017-May-21 19:00N 67°15' E 013°45'510.8
2017-May-21 18:30N 67°12' E 013°34'610.9
2017-May-21 18:00N 67°07' E 013°29'5 9.6
2017-May-21 17:30N 67°03' E 013°25'611.7
2017-May-21 17:00N 66°57' E 013°20'612.4
2017-May-21 16:30N 66°51' E 013°19'713.0
2017-May-21 16:00N 66°45' E 013°14'713.6
2017-May-21 15:30N 66°44' E 013°31'3 5.2
2017-May-21 15:00N 66°42' E 013°36'3658.0 260 / 141018.3 9.2 4.2 7.4
2017-May-21 14:59N 66°42' E 013°42'0 0.3
2017-May-21 14:30N 66°42' E 013°42'1212.2
2017-May-21 13:30N 66°43' E 013°11'714.0
2017-May-21 13:01N 66°36' E 013°10'510.5
2017-May-21 12:30N 66°33' E 013°20'510.3
2017-May-21 12:00N 66°33' E 013°33'2 0.3
2017-May-21 03:17N 66°34' E 013°27'1 4.2
2017-May-21 02:59N 66°33' E 013°24'2 4.5
2017-May-21 02:30N 66°33' E 013°19'2 4.3
2017-May-21 02:00N 66°33' E 013°13'2 4.9
2017-May-21 01:30N 66°33' E 013°07'2 4.7
2017-May-21 01:00N 66°33' E 013°02'2 4.1
2017-May-21 00:29N 66°32' E 012°57'2 4.6
2017-May-21 00:00N 66°30' E 012°59'2 4.9
2017-May-20 23:30N 66°27' E 012°59'2 4.9
2017-May-20 23:00N 66°25' E 012°59'2 4.7
2017-May-20 22:30N 66°22' E 012°58'2 4.8
2017-May-20 22:00N 66°20' E 012°57'2 4.7
2017-May-20 21:30N 66°18' E 012°56'2 4.6
2017-May-20 21:00N 66°16' E 012°55'2 4.6
2017-May-20 20:30N 66°13' E 012°53'2 4.5
2017-May-20 20:00N 66°11' E 012°51'2 4.9
2017-May-20 19:30N 66°09' E 012°49'2 4.8
2017-May-20 19:00N 66°07' E 012°46'2 4.6
2017-May-20 18:30N 66°05' E 012°42'3 5.2
2017-May-20 18:00N 66°03' E 012°37'4 9.0
2017-May-20 17:30N 65°60' E 012°31'714.6
2017-May-20 17:00N 65°53' E 012°22'714.8
2017-May-20 16:30N 65°46' E 012°19'612.9
2017-May-20 16:00N 65°43' E 012°05'3 6.5
2017-May-20 15:28N 65°44' E 011°57'0 0.1
2017-May-20 14:58N 65°44' E 011°57'0 0.0
2017-May-20 14:28N 65°44' E 011°57'0 0.0
2017-May-20 13:28N 65°44' E 011°57'0 0.0
2017-May-20 12:58N 65°44' E 011°57'0 0.0
2017-May-20 12:28N 65°44' E 011°57'0 0.1
2017-May-20 11:59N 65°44' E 011°57'2 3.9
2017-May-20 11:29N 65°44' E 012°02'4 8.0
2017-May-20 11:00N 65°43' E 012°11'714.0
2017-May-20 10:30N 65°36' E 012°17'714.0
2017-May-20 10:00N 65°31' E 012°27'9 1.8
2017-May-20 05:10N 65°28' E 012°46'0 1.9
2017-May-20 04:56N 65°28' E 012°46'3 7.6
2017-May-20 04:30N 65°27' E 012°38'510.0
2017-May-20 04:00N 65°30' E 012°28'510.1
2017-May-20 03:30N 65°34' E 012°21'4 7.6
2017-May-20 03:00N 65°35' E 012°12'5 9.7
2017-May-20 02:30N 65°32' E 012°02'510.0
2017-May-20 02:00N 65°28' E 011°58'4 8.7
2017-May-20 01:29N 65°24' E 011°58'4 7.8
2017-May-20 01:00N 65°20' E 012°01'510.2
2017-May-20 00:30N 65°15' E 011°56'510.0
2017-May-20 00:00N 65°11' E 011°51'510.2
2017-May-19 23:30N 65°06' E 011°48'510.0
2017-May-19 23:00N 65°02' E 011°42'5 9.5
2017-May-19 22:30N 64°58' E 011°34'510.3
2017-May-19 22:00N 64°55' E 011°24'5 9.8
2017-May-19 21:31N 64°52' E 011°16'5 9.5
2017-May-19 21:00N 64°48' E 011°08'510.0
2017-May-19 20:30N 64°45' E 010°60'5 9.9
2017-May-19 20:00N 64°42' E 010°50'5 9.9
2017-May-19 19:30N 64°39' E 010°42'510.0
2017-May-19 19:00N 64°35' E 010°34'611.3
2017-May-19 18:30N 64°30' E 010°27'714.3
2017-May-19 18:00N 64°23' E 010°27'611.2
2017-May-19 17:30N 64°18' E 010°22'612.2
2017-May-19 17:00N 64°13' E 010°13'715.0
2017-May-19 16:30N 64°07' E 010°03'715.0
2017-May-19 16:00N 64°03' E 009°49'714.6
2017-May-19 15:30N 63°57' E 009°38'714.6
2017-May-19 15:00N 63°52' E 009°26'1514.7
2017-May-19 14:00N 63°43' E 008°59'714.7
2017-May-19 13:30N 63°40' E 008°44'815.2
2017-May-19 13:00N 63°39' E 008°28'714.9
2017-May-19 12:30N 63°36' E 008°12'714.6
2017-May-19 12:00N 63°33' E 007°57'510.3
2017-May-19 11:30N 63°29' E 007°51'3 5.0
2017-May-19 10:59N 63°26' E 007°49'0 0.0
2017-May-19 10:29N 63°26' E 007°49'0 0.0
2017-May-19 09:59N 63°26' E 007°49'0 0.0
2017-May-19 09:29N 63°26' E 007°49'0 0.0
2017-May-19 08:59N 63°26' E 007°49'0 0.0
2017-May-19 08:29N 63°26' E 007°49'0 0.0
2017-May-19 07:59N 63°26' E 007°49'0 0.0
2017-May-19 07:29N 63°26' E 007°49'0 0.0
2017-May-19 06:59N 63°26' E 007°49'0 0.0
2017-May-19 06:29N 63°26' E 007°49'0 0.0
2017-May-19 05:59N 63°26' E 007°49'0 0.0
2017-May-19 05:29N 63°26' E 007°49'0 0.0
2017-May-19 04:56N 63°26' E 007°49'2 5.0
2017-May-19 04:30N 63°25' E 007°46'612.5
2017-May-19 04:00N 63°19' E 007°38'612.7
2017-May-19 03:30N 63°14' E 007°44'612.8
2017-May-19 03:01N 63°08' E 007°40'4 7.5
2017-May-19 02:31N 63°06' E 007°32'4 8.1
2017-May-19 02:01N 63°04' E 007°25'4 8.1
2017-May-19 01:31N 63°03' E 007°16'4 8.0
2017-May-19 01:01N 63°01' E 007°08'4 8.0
2017-May-19 00:30N 63°00' E 006°59'4 8.2
2017-May-19 00:00N 62°58' E 006°52'4 8.0
2017-May-18 23:30N 62°55' E 006°47'4 8.0
2017-May-18 23:01N 62°52' E 006°42'4 8.1
2017-May-18 22:31N 62°48' E 006°37'4 8.1
2017-May-18 22:00N 62°45' E 006°32'4 8.1
2017-May-18 21:31N 62°41' E 006°27'4 8.2
2017-May-18 21:00N 62°38' E 006°22'4 8.5
2017-May-18 20:30N 62°35' E 006°15'4 8.4
2017-May-18 20:00N 62°32' E 006°09'3 5.1
2017-May-18 19:30N 62°29' E 006°08'2 3.2
2017-May-18 19:00N 62°29' E 006°05'2 4.0
2017-May-18 18:30N 62°27' E 006°02'714.0
2017-May-18 18:00N 62°29' E 005°47'714.7
2017-May-18 17:30N 62°29' E 005°31'815.2
2017-May-18 17:00N 62°25' E 005°18'714.3
2017-May-18 16:30N 62°19' E 005°08'815.1
2017-May-18 16:00N 62°12' E 005°05'714.6
2017-May-18 15:30N 62°05' E 005°07'612.5
2017-May-18 15:00N 61°58' E 005°09'8 8.1
2017-May-18 14:00N 61°55' E 005°25'9 0.7
2017-May-18 01:15N 61°53' E 005°44'311.9
2017-May-18 01:00N 61°54' E 005°38'611.9
2017-May-18 00:30N 61°55' E 005°26'611.7
2017-May-18 00:00N 61°54' E 005°14'3 6.0
2017-May-17 23:30N 61°51' E 005°16'713.8
2017-May-17 23:00N 61°47' E 005°04'714.0
2017-May-17 22:30N 61°40' E 004°58'613.0
2017-May-17 22:00N 61°34' E 004°58'713.8
2017-May-17 21:30N 61°27' E 004°56'815.1
2017-May-17 21:00N 61°21' E 004°48'713.4
2017-May-17 20:30N 61°15' E 004°54'714.3
2017-May-17 20:00N 61°08' E 005°01'713.8
2017-May-17 19:30N 61°02' E 004°55'1014.5
2017-May-17 18:47N 60°54' E 004°41'414.4
2017-May-17 18:30N 60°50' E 004°42'815.2
2017-May-17 18:00N 60°43' E 004°49'714.6
2017-May-17 17:30N 60°38' E 004°58'713.0
2017-May-17 17:00N 60°35' E 005°10'510.2
2017-May-17 16:30N 60°31' E 005°15'611.9
2017-May-17 16:00N 60°25' E 005°17'1 1.6
2017-May-17 15:30N 60°24' E 005°19'0 0.0
2017-May-17 15:00N 60°24' E 005°19'0 0.0
2017-May-17 14:30N 60°24' E 005°19'0 0.0
2017-May-17 13:27N 60°24' E 005°19'0 0.0
2017-May-17 13:00N 60°24' E 005°19'0 0.0
2017-May-17 12:30N 60°24' E 005°19'0 0.0
2017-May-17 12:00N 60°24' E 005°19'0 0.0
2017-May-17 11:30N 60°24' E 005°19'0 0.0
2017-May-17 11:00N 60°24' E 005°19'0 0.0
2017-May-17 10:30N 60°24' E 005°19'0 0.0
2017-May-17 10:00N 60°24' E 005°19'0 0.0
2017-May-17 09:30N 60°24' E 005°19'0 0.0
2017-May-17 09:00N 60°24' E 005°19'0 0.0
2017-May-17 07:48N 60°24' E 005°19'0 0.0
2017-May-17 07:30N 60°24' E 005°19'0 0.0
2017-May-17 07:00N 60°24' E 005°19'0 0.0
2017-May-17 06:30N 60°24' E 005°19'0 0.0
2017-May-17 06:00N 60°24' E 005°19'0 0.0
2017-May-17 05:30N 60°24' E 005°19'0 0.0
2017-May-17 05:00N 60°24' E 005°19'0 0.0
2017-May-17 04:30N 60°24' E 005°19'0 0.0
2017-May-17 04:00N 60°24' E 005°19'0 0.7
2017-May-17 03:30N 60°24' E 005°18'5 9.0
2017-May-17 03:00N 60°22' E 005°10'510.7
2017-May-17 02:30N 60°16' E 005°10'510.9
2017-May-17 02:00N 60°11' E 005°11'611.5
2017-May-17 01:30N 60°09' E 005°00'4 7.7
2017-May-17 00:59N 60°09' E 004°52'4 7.5
2017-May-17 00:30N 60°08' E 004°45'4 7.8
2017-May-17 00:00N 60°08' E 004°37'  
Track history (hours):
 
Tides and Currents Weather Stations Pressure Air Temp Water Temp Dewpoint Dewpoint Depression Visibility Wind Speed Wind Dir Waves Ship Positions

N G Explorer

Last reported at 2017-May-26 15:00 UTC. Time now 2017-Jun-25 08:37 UTC.
Position N 76°42' E 018°00'.
Warning: this ship's position is 29 days out of date.

Length 112 m; draft 4.9 m.

Type: Passenger vessel. MMSI: 309336000.

Wind from 290 at 14 knots

Barometer 1018.0 mb
Air temperature -0.5 ° C
Dewpoint -1.8 ° C
Water temperature -0.8 ° C

Date/timePositionNaut miles runAvg speedWind from/ knotsBaromVisibWave heightAir tempDewpointWater temp
2017-May-26 15:00N 76°42' E 018°00'363 8.3 290 / 141018.0 -0.5-1.8-0.8
2017-May-24 19:17N 70°41' E 020°12'415.3
2017-May-24 19:00N 70°37' E 020°13'815.3
2017-May-24 18:29N 70°29' E 020°16'715.0
2017-May-24 18:00N 70°22' E 020°19'714.8
2017-May-24 17:30N 70°15' E 020°20'714.8
2017-May-24 17:00N 70°07' E 020°14'714.8
2017-May-24 16:30N 70°01' E 020°03'713.7
2017-May-24 16:00N 69°55' E 019°52'714.7
2017-May-24 15:30N 69°50' E 019°38'815.2
2017-May-24 15:00N 69°47' E 019°17'713.5
2017-May-24 14:30N 69°43' E 019°03'4 4.0
2017-May-24 13:30N 69°39' E 018°58'0 0.0
2017-May-24 13:00N 69°39' E 018°58'0 0.0
2017-May-24 12:30N 69°39' E 018°58'0 0.0
2017-May-24 11:59N 69°39' E 018°58'0 0.0
2017-May-24 11:30N 69°39' E 018°58'0 0.0
2017-May-24 11:00N 69°39' E 018°58'0 0.0
2017-May-24 10:30N 69°39' E 018°58'0 0.0
2017-May-24 09:57N 69°39' E 018°58'0 0.0
2017-May-24 09:29N 69°39' E 018°58'0 0.0
2017-May-24 08:57N 69°39' E 018°58'0 0.0
2017-May-24 08:29N 69°39' E 018°58'0 0.0
2017-May-24 07:59N 69°39' E 018°58'0 0.0
2017-May-24 07:29N 69°39' E 018°58'0 0.0
2017-May-24 06:59N 69°39' E 018°58'0 0.0
2017-May-24 06:29N 69°39' E 018°58'0 0.0
2017-May-24 05:59N 69°39' E 018°58'0 0.0
2017-May-24 05:29N 69°39' E 018°58'0 0.0
2017-May-24 04:59N 69°39' E 018°58'4 7.6
2017-May-24 04:30N 69°36' E 018°52'510.8
2017-May-24 04:00N 69°33' E 018°39'611.5
2017-May-24 03:30N 69°31' E 018°24'611.6
2017-May-24 03:00N 69°29' E 018°09'611.8
2017-May-24 02:30N 69°23' E 018°05'511.0
2017-May-24 02:00N 69°18' E 017°58'510.7
2017-May-24 01:30N 69°13' E 017°59'5 9.2
2017-May-24 01:00N 69°09' E 017°51'611.5
2017-May-24 00:30N 69°07' E 017°36'611.5
2017-May-24 00:00N 69°04' E 017°22'612.0
2017-May-23 23:30N 68°59' E 017°13'611.6
2017-May-23 23:00N 68°55' E 017°02'713.2
2017-May-23 22:30N 68°49' E 016°52'714.5
2017-May-23 22:00N 68°43' E 016°43'714.9
2017-May-23 21:30N 68°36' E 016°33'612.8
2017-May-23 21:00N 68°33' E 016°17'713.6
2017-May-23 20:30N 68°28' E 016°06'612.7
2017-May-23 20:00N 68°22' E 015°59'714.7
2017-May-23 19:30N 68°17' E 015°45'714.4
2017-May-23 19:00N 68°13' E 015°29'714.8
2017-May-23 18:30N 68°11' E 015°10'714.9
2017-May-23 18:00N 68°09' E 014°51'714.9
2017-May-23 17:30N 68°06' E 014°32'815.2
2017-May-23 17:00N 68°04' E 014°13'815.0
2017-May-23 16:30N 68°02' E 013°53'714.7
2017-May-23 16:00N 67°59' E 013°35'713.8
2017-May-23 15:30N 67°57' E 013°18'4 6.9
2017-May-23 14:52N 67°56' E 013°06'0 0.0
2017-May-23 14:25N 67°56' E 013°06'0 0.0
2017-May-23 13:22N 67°56' E 013°06'0 0.0
2017-May-23 12:58N 67°56' E 013°06'0 0.0
2017-May-23 12:28N 67°56' E 013°06'0 0.0
2017-May-23 12:00N 67°56' E 013°06'4 7.7
2017-May-23 11:29N 67°52' E 013°05'815.8
2017-May-23 11:00N 67°45' E 012°57'815.9
2017-May-23 10:30N 67°38' E 012°46'3 6.7
2017-May-23 09:59N 67°39' E 012°37'0 0.0
2017-May-23 09:29N 67°39' E 012°37'0 0.0
2017-May-23 08:59N 67°39' E 012°37'0 0.0
2017-May-23 08:29N 67°39' E 012°37'0 0.0
2017-May-23 07:59N 67°39' E 012°37'0 0.0
2017-May-23 07:29N 67°39' E 012°37'0 0.0
2017-May-23 06:59N 67°39' E 012°37'0 0.1
2017-May-23 06:29N 67°39' E 012°37'0 0.0
2017-May-23 05:59N 67°39' E 012°37'0 0.0
2017-May-23 05:29N 67°39' E 012°37'0 0.6
2017-May-23 05:00N 67°38' E 012°37'3 6.7
2017-May-23 04:30N 67°38' E 012°45'4 7.7
2017-May-23 04:00N 67°39' E 012°55'4 7.7
2017-May-23 03:30N 67°40' E 013°05'4 7.6
2017-May-23 03:00N 67°41' E 013°14'4 7.7
2017-May-23 02:29N 67°43' E 013°23'4 7.8
2017-May-23 02:00N 67°46' E 013°31'4 7.8
2017-May-23 01:30N 67°48' E 013°39'4 7.8
2017-May-23 01:00N 67°50' E 013°47'4 7.4
2017-May-23 00:30N 67°53' E 013°55'4 8.8
2017-May-23 00:00N 67°55' E 014°04'4 9.1
2017-May-22 23:30N 67°58' E 014°13'5 9.1
2017-May-22 23:00N 68°01' E 014°23'4 8.4
2017-May-22 22:30N 68°03' E 014°32'4 7.9
2017-May-22 22:00N 68°06' E 014°39'4 8.1
2017-May-22 21:31N 68°09' E 014°46'4 8.3
2017-May-22 21:01N 68°13' E 014°53'4 8.0
2017-May-22 20:29N 68°16' E 014°58'4 8.5
2017-May-22 20:00N 68°21' E 014°59'2 3.0
2017-May-22 19:30N 68°22' E 014°57'0 0.8
2017-May-22 19:00N 68°22' E 014°58'3 5.4
2017-May-22 18:30N 68°19' E 014°58'510.7
2017-May-22 18:00N 68°14' E 014°56'5 9.4
2017-May-22 17:29N 68°12' E 015°09'510.5
2017-May-22 17:01N 68°13' E 015°22'510.6
2017-May-22 16:31N 68°13' E 015°36'611.6
2017-May-22 16:00N 68°15' E 015°51'5 9.9
2017-May-22 15:30N 68°16' E 016°04'1 1.9
2017-May-22 14:59N 68°15' E 016°04'0 0.0
2017-May-22 14:26N 68°15' E 016°04'0 0.0
2017-May-22 13:29N 68°15' E 016°04'0 0.5
2017-May-22 13:00N 68°15' E 016°05'611.8
2017-May-22 12:30N 68°09' E 016°11'613.0
2017-May-22 12:00N 68°03' E 016°08'9 1.2
2017-May-22 04:15N 67°54' E 016°16'2 8.5
2017-May-22 04:00N 67°56' E 016°14'611.4
2017-May-22 03:28N 68°02' E 016°10'511.0
2017-May-22 03:00N 68°07' E 016°10'611.4
2017-May-22 02:30N 68°13' E 016°09'510.8
2017-May-22 02:00N 68°17' E 016°00'611.6
2017-May-22 01:31N 68°15' E 015°46'611.8
2017-May-22 01:00N 68°12' E 015°32'611.9
2017-May-22 00:30N 68°09' E 015°18'611.9
2017-May-22 00:00N 68°05' E 015°05'612.4
2017-May-21 23:30N 68°01' E 014°52'612.3
2017-May-21 23:00N 67°57' E 014°39'612.3
2017-May-21 22:30N 67°53' E 014°27'612.5
2017-May-21 22:00N 67°48' E 014°17'713.4
2017-May-21 21:30N 67°42' E 014°14'713.0
2017-May-21 21:00N 67°35' E 014°11'611.7
2017-May-21 20:30N 67°29' E 014°11'611.4
2017-May-21 20:00N 67°24' E 014°05'611.7
2017-May-21 19:30N 67°20' E 013°56'611.8
2017-May-21 19:00N 67°15' E 013°45'510.8
2017-May-21 18:30N 67°12' E 013°34'610.9
2017-May-21 18:00N 67°07' E 013°29'5 9.6
2017-May-21 17:30N 67°03' E 013°25'611.7
2017-May-21 17:00N 66°57' E 013°20'612.4
2017-May-21 16:30N 66°51' E 013°19'713.0
2017-May-21 16:00N 66°45' E 013°14'713.6
2017-May-21 15:30N 66°44' E 013°31'3 5.2
2017-May-21 15:00N 66°42' E 013°36'3658.0 260 / 141018.3 9.2 4.2 7.4
2017-May-21 14:59N 66°42' E 013°42'0 0.3
2017-May-21 14:30N 66°42' E 013°42'1212.2
2017-May-21 13:30N 66°43' E 013°11'714.0
2017-May-21 13:01N 66°36' E 013°10'510.5
2017-May-21 12:30N 66°33' E 013°20'510.3
2017-May-21 12:00N 66°33' E 013°33'2 0.3
2017-May-21 03:17N 66°34' E 013°27'1 4.2
2017-May-21 02:59N 66°33' E 013°24'2 4.5
2017-May-21 02:30N 66°33' E 013°19'2 4.3
2017-May-21 02:00N 66°33' E 013°13'2 4.9
2017-May-21 01:30N 66°33' E 013°07'2 4.7
2017-May-21 01:00N 66°33' E 013°02'2 4.1
2017-May-21 00:29N 66°32' E 012°57'2 4.6
2017-May-21 00:00N 66°30' E 012°59'2 4.9
2017-May-20 23:30N 66°27' E 012°59'2 4.9
2017-May-20 23:00N 66°25' E 012°59'2 4.7
2017-May-20 22:30N 66°22' E 012°58'2 4.8
2017-May-20 22:00N 66°20' E 012°57'2 4.7
2017-May-20 21:30N 66°18' E 012°56'2 4.6
2017-May-20 21:00N 66°16' E 012°55'2 4.6
2017-May-20 20:30N 66°13' E 012°53'2 4.5
2017-May-20 20:00N 66°11' E 012°51'2 4.9
2017-May-20 19:30N 66°09' E 012°49'2 4.8
2017-May-20 19:00N 66°07' E 012°46'2 4.6
2017-May-20 18:30N 66°05' E 012°42'3 5.2
2017-May-20 18:00N 66°03' E 012°37'4 9.0
2017-May-20 17:30N 65°60' E 012°31'714.6
2017-May-20 17:00N 65°53' E 012°22'714.8
2017-May-20 16:30N 65°46' E 012°19'612.9
2017-May-20 16:00N 65°43' E 012°05'3 6.5
2017-May-20 15:28N 65°44' E 011°57'0 0.1
2017-May-20 14:58N 65°44' E 011°57'0 0.0
2017-May-20 14:28N 65°44' E 011°57'0 0.0
2017-May-20 13:28N 65°44' E 011°57'0 0.0
2017-May-20 12:58N 65°44' E 011°57'0 0.0
2017-May-20 12:28N 65°44' E 011°57'0 0.1
2017-May-20 11:59N 65°44' E 011°57'2 3.9
2017-May-20 11:29N 65°44' E 012°02'4 8.0
2017-May-20 11:00N 65°43' E 012°11'714.0
2017-May-20 10:30N 65°36' E 012°17'714.0
2017-May-20 10:00N 65°31' E 012°27'9 1.8
2017-May-20 05:10N 65°28' E 012°46'0 1.9
2017-May-20 04:56N 65°28' E 012°46'3 7.6
2017-May-20 04:30N 65°27' E 012°38'510.0
2017-May-20 04:00N 65°30' E 012°28'510.1
2017-May-20 03:30N 65°34' E 012°21'4 7.6
2017-May-20 03:00N 65°35' E 012°12'5 9.7
2017-May-20 02:30N 65°32' E 012°02'510.0
2017-May-20 02:00N 65°28' E 011°58'4 8.7
2017-May-20 01:29N 65°24' E 011°58'4 7.8
2017-May-20 01:00N 65°20' E 012°01'510.2
2017-May-20 00:30N 65°15' E 011°56'510.0
2017-May-20 00:00N 65°11' E 011°51'510.2
2017-May-19 23:30N 65°06' E 011°48'510.0
2017-May-19 23:00N 65°02' E 011°42'5 9.5
2017-May-19 22:30N 64°58' E 011°34'510.3
2017-May-19 22:00N 64°55' E 011°24'5 9.8
2017-May-19 21:31N 64°52' E 011°16'5 9.5
2017-May-19 21:00N 64°48' E 011°08'510.0
2017-May-19 20:30N 64°45' E 010°60'5 9.9
2017-May-19 20:00N 64°42' E 010°50'5 9.9
2017-May-19 19:30N 64°39' E 010°42'510.0
2017-May-19 19:00N 64°35' E 010°34'611.3
2017-May-19 18:30N 64°30' E 010°27'714.3
2017-May-19 18:00N 64°23' E 010°27'611.2
2017-May-19 17:30N 64°18' E 010°22'612.2
2017-May-19 17:00N 64°13' E 010°13'715.0
2017-May-19 16:30N 64°07' E 010°03'715.0
2017-May-19 16:00N 64°03' E 009°49'714.6
2017-May-19 15:30N 63°57' E 009°38'714.6
2017-May-19 15:00N 63°52' E 009°26'1514.7
2017-May-19 14:00N 63°43' E 008°59'714.7
2017-May-19 13:30N 63°40' E 008°44'815.2
2017-May-19 13:00N 63°39' E 008°28'714.9
2017-May-19 12:30N 63°36' E 008°12'714.6
2017-May-19 12:00N 63°33' E 007°57'510.3
2017-May-19 11:30N 63°29' E 007°51'3 5.0
2017-May-19 10:59N 63°26' E 007°49'0 0.0
2017-May-19 10:29N 63°26' E 007°49'0 0.0
2017-May-19 09:59N 63°26' E 007°49'0 0.0
2017-May-19 09:29N 63°26' E 007°49'0 0.0
2017-May-19 08:59N 63°26' E 007°49'0 0.0
2017-May-19 08:29N 63°26' E 007°49'0 0.0
2017-May-19 07:59N 63°26' E 007°49'0 0.0
2017-May-19 07:29N 63°26' E 007°49'0 0.0
2017-May-19 06:59N 63°26' E 007°49'0 0.0
2017-May-19 06:29N 63°26' E 007°49'0 0.0
2017-May-19 05:59N 63°26' E 007°49'0 0.0
2017-May-19 05:29N 63°26' E 007°49'0 0.0
2017-May-19 04:56N 63°26' E 007°49'2 5.0
2017-May-19 04:30N 63°25' E 007°46'612.5
2017-May-19 04:00N 63°19' E 007°38'612.7
2017-May-19 03:30N 63°14' E 007°44'612.8
2017-May-19 03:01N 63°08' E 007°40'4 7.5
2017-May-19 02:31N 63°06' E 007°32'4 8.1
2017-May-19 02:01N 63°04' E 007°25'4 8.1
2017-May-19 01:31N 63°03' E 007°16'4 8.0
2017-May-19 01:01N 63°01' E 007°08'4 8.0
2017-May-19 00:30N 63°00' E 006°59'4 8.2
2017-May-19 00:00N 62°58' E 006°52'4 8.0
2017-May-18 23:30N 62°55' E 006°47'4 8.0
2017-May-18 23:01N 62°52' E 006°42'4 8.1
2017-May-18 22:31N 62°48' E 006°37'4 8.1
2017-May-18 22:00N 62°45' E 006°32'4 8.1
2017-May-18 21:31N 62°41' E 006°27'4 8.2
2017-May-18 21:00N 62°38' E 006°22'4 8.5
2017-May-18 20:30N 62°35' E 006°15'4 8.4
2017-May-18 20:00N 62°32' E 006°09'3 5.1
2017-May-18 19:30N 62°29' E 006°08'2 3.2
2017-May-18 19:00N 62°29' E 006°05'2 4.0
2017-May-18 18:30N 62°27' E 006°02'714.0
2017-May-18 18:00N 62°29' E 005°47'714.7
2017-May-18 17:30N 62°29' E 005°31'815.2
2017-May-18 17:00N 62°25' E 005°18'714.3
2017-May-18 16:30N 62°19' E 005°08'815.1
2017-May-18 16:00N 62°12' E 005°05'714.6
2017-May-18 15:30N 62°05' E 005°07'612.5
2017-May-18 15:00N 61°58' E 005°09'8 8.1
2017-May-18 14:00N 61°55' E 005°25'9 0.7
2017-May-18 01:15N 61°53' E 005°44'311.9
2017-May-18 01:00N 61°54' E 005°38'611.9
2017-May-18 00:30N 61°55' E 005°26'611.7
2017-May-18 00:00N 61°54' E 005°14'3 6.0
2017-May-17 23:30N 61°51' E 005°16'713.8
2017-May-17 23:00N 61°47' E 005°04'714.0
2017-May-17 22:30N 61°40' E 004°58'613.0
2017-May-17 22:00N 61°34' E 004°58'713.8
2017-May-17 21:30N 61°27' E 004°56'815.1
2017-May-17 21:00N 61°21' E 004°48'713.4
2017-May-17 20:30N 61°15' E 004°54'714.3
2017-May-17 20:00N 61°08' E 005°01'713.8
2017-May-17 19:30N 61°02' E 004°55'1014.5
2017-May-17 18:47N 60°54' E 004°41'414.4
2017-May-17 18:30N 60°50' E 004°42'815.2
2017-May-17 18:00N 60°43' E 004°49'714.6
2017-May-17 17:30N 60°38' E 004°58'713.0
2017-May-17 17:00N 60°35' E 005°10'510.2
2017-May-17 16:30N 60°31' E 005°15'611.9
2017-May-17 16:00N 60°25' E 005°17'1 1.6
2017-May-17 15:30N 60°24' E 005°19'0 0.0
2017-May-17 15:00N 60°24' E 005°19'0 0.0
2017-May-17 14:30N 60°24' E 005°19'0 0.0
2017-May-17 13:27N 60°24' E 005°19'0 0.0
2017-May-17 13:00N 60°24' E 005°19'0 0.0
2017-May-17 12:30N 60°24' E 005°19'0 0.0
2017-May-17 12:00N 60°24' E 005°19'0 0.0
2017-May-17 11:30N 60°24' E 005°19'0 0.0
2017-May-17 11:00N 60°24' E 005°19'0 0.0
2017-May-17 10:30N 60°24' E 005°19'0 0.0
2017-May-17 10:00N 60°24' E 005°19'0 0.0
2017-May-17 09:30N 60°24' E 005°19'0 0.0
2017-May-17 09:00N 60°24' E 005°19'0 0.0
2017-May-17 07:48N 60°24' E 005°19'0 0.0
2017-May-17 07:30N 60°24' E 005°19'0 0.0
2017-May-17 07:00N 60°24' E 005°19'0 0.0
2017-May-17 06:30N 60°24' E 005°19'0 0.0
2017-May-17 06:00N 60°24' E 005°19'0 0.0
2017-May-17 05:30N 60°24' E 005°19'0 0.0
2017-May-17 05:00N 60°24' E 005°19'0 0.0
2017-May-17 04:30N 60°24' E 005°19'0 0.0
2017-May-17 04:00N 60°24' E 005°19'0 0.7
2017-May-17 03:30N 60°24' E 005°18'5 9.0
2017-May-17 03:00N 60°22' E 005°10'510.7
2017-May-17 02:30N 60°16' E 005°10'510.9
2017-May-17 02:00N 60°11' E 005°11'611.5
2017-May-17 01:30N 60°09' E 005°00'4 7.7
2017-May-17 00:59N 60°09' E 004°52'4 7.5
2017-May-17 00:30N 60°08' E 004°45'4 7.8
2017-May-17 00:00N 60°08' E 004°37'  

Dump ship's entire track history